createdAt,value
2024-02-26T00:01:53.586Z,52.45
2024-02-26T00:04:20.900Z,52.54
2024-02-26T00:06:49.125Z,52.56
2024-02-26T00:09:16.314Z,52.56
2024-02-26T00:11:43.521Z,52.39
2024-02-26T00:14:10.643Z,52.62
2024-02-26T00:16:37.623Z,53.09
2024-02-26T00:19:05.033Z,52.82
2024-02-26T00:21:32.097Z,52.78
2024-02-26T00:23:59.205Z,52.64
2024-02-26T00:26:26.164Z,52.85
2024-02-26T00:28:53.256Z,52.97
2024-02-26T00:31:20.300Z,53.17
2024-02-26T00:33:47.526Z,53.22
2024-02-26T00:36:14.639Z,53.15
2024-02-26T00:38:42.305Z,53.12
2024-02-26T00:41:09.285Z,53.09
2024-02-26T00:43:36.331Z,53.30
2024-02-26T00:46:03.548Z,53.15
2024-02-26T00:48:30.793Z,53.21
2024-02-26T00:50:57.999Z,53.09
2024-02-26T00:53:26.231Z,53.32
2024-02-26T00:55:53.404Z,53.12
2024-02-26T00:58:20.469Z,53.26
2024-02-26T01:00:47.489Z,53.33
2024-02-26T01:03:14.633Z,53.19
2024-02-26T01:05:41.949Z,53.22
2024-02-26T01:08:09.670Z,53.10
2024-02-26T01:10:36.732Z,53.25
2024-02-26T01:13:04.132Z,53.09
2024-02-26T01:15:31.075Z,53.19
2024-02-26T01:17:58.143Z,53.09
2024-02-26T01:20:25.329Z,53.09
2024-02-26T01:22:52.285Z,53.11
2024-02-26T01:25:19.515Z,52.83
2024-02-26T01:27:46.559Z,53.03
2024-02-26T01:30:13.869Z,53.19
2024-02-26T01:32:41.208Z,53.01
2024-02-26T01:35:11.435Z,53.24
2024-02-26T01:37:39.335Z,52.70
2024-02-26T01:40:08.488Z,52.97
2024-02-26T01:42:35.671Z,52.88
2024-02-26T01:45:03.548Z,52.98
2024-02-26T01:47:30.736Z,52.96
2024-02-26T01:49:58.582Z,52.89
2024-02-26T01:52:26.562Z,52.93
2024-02-26T01:54:53.932Z,52.84
2024-02-26T01:57:21.401Z,52.92
2024-02-26T01:59:48.509Z,52.68
2024-02-26T02:02:17.261Z,52.86
2024-02-26T02:04:44.498Z,53.01
2024-02-26T02:07:11.872Z,53.17
2024-02-26T02:09:39.202Z,52.88
2024-02-26T02:12:07.589Z,52.58
2024-02-26T02:14:34.632Z,52.85
2024-02-26T02:17:01.671Z,52.71
2024-02-26T02:19:28.727Z,52.78
2024-02-26T02:21:55.824Z,52.86
2024-02-26T02:24:22.914Z,52.70
2024-02-26T02:26:49.969Z,52.60
2024-02-26T02:29:17.159Z,52.25
2024-02-26T02:31:44.256Z,52.35
2024-02-26T02:34:11.389Z,52.21
2024-02-26T02:36:50.673Z,52.33
2024-02-26T02:39:17.949Z,52.03
2024-02-26T02:41:45.237Z,52.15
2024-02-26T02:44:12.333Z,52.52
2024-02-26T02:46:40.277Z,52.31
2024-02-26T02:49:11.791Z,52.28
2024-02-26T02:51:39.194Z,52.57
2024-02-26T02:54:06.499Z,52.29
2024-02-26T02:56:33.617Z,52.28
2024-02-26T02:59:02.654Z,52.30
2024-02-26T03:01:29.839Z,52.34
2024-02-26T03:03:56.806Z,52.32
2024-02-26T03:06:24.526Z,52.29
2024-02-26T03:08:51.732Z,51.97
2024-02-26T03:11:18.958Z,51.96
2024-02-26T03:13:46.064Z,52.21
2024-02-26T03:16:13.293Z,52.11
2024-02-26T03:18:41.652Z,51.89
2024-02-26T03:21:09.047Z,51.75
2024-02-26T03:23:39.304Z,51.82
2024-02-26T03:26:06.731Z,51.80
2024-02-26T03:28:34.618Z,52.03
2024-02-26T03:31:03.923Z,51.97
2024-02-26T03:33:31.315Z,51.83
2024-02-26T03:35:58.412Z,51.83
2024-02-26T03:38:25.569Z,51.96
2024-02-26T03:40:52.702Z,51.88
2024-02-26T03:43:19.702Z,51.79
2024-02-26T03:45:46.708Z,51.68
2024-02-26T03:48:13.986Z,52.14
2024-02-26T03:50:41.181Z,52.00
2024-02-26T03:53:12.850Z,51.85
2024-02-26T03:55:43.112Z,51.88
2024-02-26T03:58:10.522Z,51.72
2024-02-26T04:00:38.622Z,51.90
2024-02-26T04:03:06.414Z,52.09
2024-02-26T04:05:33.404Z,51.79
2024-02-26T04:08:00.326Z,51.85
2024-02-26T04:10:27.562Z,51.61
2024-02-26T04:12:54.555Z,51.79
2024-02-26T04:15:21.717Z,51.78
2024-02-26T04:17:48.854Z,51.71
2024-02-26T04:20:17.136Z,51.87
2024-02-26T04:22:44.474Z,51.76
2024-02-26T04:25:11.705Z,52.01
2024-02-26T04:27:39.769Z,51.97
2024-02-26T04:30:08.476Z,51.72
2024-02-26T04:32:36.307Z,51.61
2024-02-26T04:35:04.348Z,51.78
2024-02-26T04:37:32.747Z,51.89
2024-02-26T04:40:00.974Z,51.51
2024-02-26T04:42:28.860Z,51.47
2024-02-26T04:44:56.686Z,51.46
2024-02-26T04:47:24.061Z,51.65
2024-02-26T04:49:52.477Z,51.72
2024-02-26T04:52:20.213Z,51.65
2024-02-26T04:54:47.296Z,51.37
2024-02-26T04:57:14.558Z,51.63
2024-02-26T04:59:44.039Z,51.52
2024-02-26T05:02:12.463Z,51.64
2024-02-26T05:04:39.657Z,51.58
2024-02-26T05:07:06.892Z,51.64
2024-02-26T05:09:34.334Z,51.73
2024-02-26T05:12:01.690Z,51.61
2024-02-26T05:14:28.786Z,51.69
2024-02-26T05:16:55.865Z,51.69
2024-02-26T05:19:23.336Z,51.78
2024-02-26T05:21:51.789Z,51.57
2024-02-26T05:24:19.524Z,51.54
2024-02-26T05:26:47.248Z,51.55
2024-02-26T05:29:14.276Z,51.95
2024-02-26T05:31:43.764Z,51.85
2024-02-26T05:34:11.092Z,51.87
2024-02-26T05:36:38.283Z,51.80
2024-02-26T05:39:05.406Z,51.74
2024-02-26T05:41:32.698Z,51.87
2024-02-26T05:44:00.470Z,51.65
2024-02-26T05:46:28.641Z,51.48
2024-02-26T05:48:56.183Z,51.74
2024-02-26T05:51:23.459Z,51.67
2024-02-26T05:53:55.839Z,51.87
2024-02-26T05:56:23.962Z,51.65
2024-02-26T05:58:51.896Z,51.78
2024-02-26T06:01:19.328Z,51.94
2024-02-26T06:03:46.777Z,51.82
2024-02-26T06:06:15.825Z,52.05
2024-02-26T06:08:42.999Z,52.08
2024-02-26T06:11:10.987Z,52.00
2024-02-26T06:13:38.080Z,51.95
2024-02-26T06:16:05.963Z,52.17
2024-02-26T06:18:33.468Z,52.20
2024-02-26T06:21:00.940Z,52.56
2024-02-26T06:23:28.107Z,52.20
2024-02-26T06:25:55.247Z,52.47
2024-02-26T06:28:22.204Z,52.29
2024-02-26T06:30:49.269Z,52.45
2024-02-26T06:33:16.596Z,52.70
2024-02-26T06:35:43.796Z,52.59
2024-02-26T06:38:12.925Z,52.46
2024-02-26T06:40:40.156Z,52.59
2024-02-26T06:43:07.302Z,52.52
2024-02-26T06:45:34.458Z,52.71
2024-02-26T06:48:02.322Z,52.29
2024-02-26T06:50:29.474Z,52.45
2024-02-26T06:52:56.427Z,52.33
2024-02-26T06:55:23.592Z,52.59
2024-02-26T06:57:50.705Z,52.33
2024-02-26T07:00:18.311Z,52.55
2024-02-26T07:02:45.690Z,52.46
2024-02-26T07:05:13.861Z,52.44
2024-02-26T07:07:41.779Z,52.44
2024-02-26T07:10:09.563Z,52.79
2024-02-26T07:12:36.712Z,52.95
2024-02-26T07:15:04.094Z,52.69
2024-02-26T07:17:31.372Z,52.54
2024-02-26T07:19:58.531Z,52.63
2024-02-26T07:22:25.873Z,52.81
2024-02-26T07:24:53.171Z,52.46
2024-02-26T07:27:20.386Z,52.69
2024-02-26T07:29:47.950Z,52.53
2024-02-26T07:32:15.502Z,52.47
2024-02-26T07:34:46.356Z,52.86
2024-02-26T07:37:13.714Z,52.95
2024-02-26T07:39:40.972Z,54.15
2024-02-26T07:42:08.278Z,53.75
2024-02-26T07:44:35.376Z,52.87
2024-02-26T07:47:02.679Z,53.04
2024-02-26T07:49:30.096Z,53.27
2024-02-26T07:51:59.475Z,52.98
2024-02-26T07:54:26.740Z,53.03
2024-02-26T07:56:53.854Z,52.63
2024-02-26T07:59:20.916Z,52.76
2024-02-26T08:01:58.564Z,52.37
2024-02-26T08:04:28.247Z,52.76
2024-02-26T08:06:55.725Z,53.08
2024-02-26T08:09:23.040Z,53.03
2024-02-26T08:11:50.376Z,52.59
2024-02-26T08:14:17.476Z,52.80
2024-02-26T08:16:44.499Z,52.98
2024-02-26T08:19:14.764Z,52.45
2024-02-26T08:21:42.734Z,52.97
2024-02-26T08:24:09.770Z,52.84
2024-02-26T08:26:37.002Z,52.86
2024-02-26T08:29:04.151Z,52.61
2024-02-26T08:31:31.738Z,52.88
2024-02-26T08:34:00.227Z,52.67
2024-02-26T08:36:27.705Z,52.80
2024-02-26T08:38:54.858Z,52.83
2024-02-26T08:41:21.843Z,52.60
2024-02-26T08:43:49.021Z,52.70
2024-02-26T08:46:15.992Z,52.70
2024-02-26T08:48:43.351Z,52.64
2024-02-26T08:51:11.193Z,52.44
2024-02-26T08:53:42.963Z,52.45
2024-02-26T08:56:18.631Z,52.90
2024-02-26T08:58:49.864Z,52.40
2024-02-26T09:01:17.744Z,52.68
2024-02-26T09:03:45.070Z,52.26
2024-02-26T09:06:13.225Z,52.62
2024-02-26T09:08:40.385Z,52.50
2024-02-26T09:11:07.907Z,52.15
2024-02-26T09:13:34.997Z,52.35
2024-02-26T09:16:02.038Z,52.48
2024-02-26T09:18:30.522Z,52.20
2024-02-26T09:20:57.877Z,51.34
2024-02-26T09:23:25.068Z,51.22
2024-02-26T09:25:52.007Z,51.85
2024-02-26T09:28:19.232Z,52.33
2024-02-26T09:30:46.541Z,52.40
2024-02-26T09:33:15.603Z,50.88
2024-02-26T09:35:43.144Z,49.98
2024-02-26T09:38:10.268Z,51.46
2024-02-26T09:40:39.088Z,51.96
2024-02-26T09:43:06.999Z,52.24
2024-02-26T09:45:36.165Z,52.35
2024-02-26T09:48:06.224Z,52.54
2024-02-26T09:50:33.404Z,52.62
2024-02-26T09:53:04.220Z,53.14
2024-02-26T09:55:31.328Z,53.16
2024-02-26T09:57:59.978Z,53.02
2024-02-26T10:00:34.024Z,53.27
2024-02-26T10:03:04.825Z,53.14
2024-02-26T10:05:35.361Z,53.18
2024-02-26T10:08:02.962Z,53.21
2024-02-26T10:10:30.896Z,52.85
2024-02-26T10:12:58.058Z,53.35
2024-02-26T10:15:25.370Z,53.28
2024-02-26T10:17:52.561Z,53.42
2024-02-26T10:20:23.258Z,53.31
2024-02-26T10:22:50.717Z,53.47
2024-02-26T10:25:17.879Z,53.03
2024-02-26T10:27:44.975Z,53.06
2024-02-26T10:30:27.137Z,53.06
2024-02-26T10:32:54.812Z,53.19
2024-02-26T10:35:22.385Z,53.23
2024-02-26T10:37:51.001Z,52.85
2024-02-26T10:40:18.395Z,53.40
2024-02-26T10:42:47.124Z,53.13
2024-02-26T10:45:14.343Z,53.23
2024-02-26T10:47:43.688Z,53.35
2024-02-26T10:50:11.367Z,52.89
2024-02-26T10:52:38.573Z,53.22
2024-02-26T10:55:08.803Z,53.23
2024-02-26T10:57:42.696Z,53.19
2024-02-26T11:00:14.700Z,53.24
2024-02-26T11:02:42.591Z,52.92
2024-02-26T11:05:10.047Z,52.84
2024-02-26T11:07:38.458Z,52.79
2024-02-26T11:10:07.132Z,52.95
2024-02-26T11:12:39.564Z,53.19
2024-02-26T11:15:07.627Z,53.10
2024-02-26T11:17:37.838Z,53.13
2024-02-26T11:20:07.047Z,53.51
2024-02-26T11:22:34.782Z,53.24
2024-02-26T11:25:02.547Z,53.33
2024-02-26T11:27:36.762Z,53.66
2024-02-26T11:30:06.795Z,53.38
2024-02-26T11:32:36.660Z,53.62
2024-02-26T11:35:06.594Z,53.23
2024-02-26T11:37:37.618Z,52.03
2024-02-26T11:40:11.675Z,52.45
2024-02-26T11:42:46.193Z,53.92
2024-02-26T11:45:41.214Z,54.02
2024-02-26T11:48:21.260Z,55.16
2024-02-26T11:50:54.373Z,55.41
2024-02-26T11:53:24.171Z,54.83
2024-02-26T11:56:28.381Z,54.63
2024-02-26T11:59:03.640Z,54.86
2024-02-26T12:01:51.384Z,55.06
2024-02-26T12:04:27.011Z,54.36
2024-02-26T12:06:57.804Z,53.99
2024-02-26T12:09:39.464Z,54.71
2024-02-26T12:12:18.895Z,54.66
2024-02-26T12:14:57.634Z,54.77
2024-02-26T12:17:26.970Z,54.47
2024-02-26T12:19:55.283Z,54.13
2024-02-26T12:22:22.592Z,54.33
2024-02-26T12:24:59.559Z,54.27
2024-02-26T12:27:26.717Z,53.97
2024-02-26T12:29:54.674Z,53.91
2024-02-26T12:32:21.892Z,54.74
2024-02-26T12:34:49.362Z,54.28
2024-02-26T12:37:17.173Z,54.05
2024-02-26T12:39:44.428Z,54.38
2024-02-26T12:42:11.615Z,54.28
2024-02-26T12:44:39.043Z,54.20
2024-02-26T12:47:06.559Z,54.34
2024-02-26T12:49:34.037Z,53.86
2024-02-26T12:52:04.771Z,53.91
2024-02-26T12:54:33.542Z,53.80
2024-02-26T12:57:03.498Z,53.82
2024-02-26T12:59:31.666Z,53.64
2024-02-26T13:01:59.068Z,52.25
2024-02-26T13:04:31.492Z,53.19
2024-02-26T13:07:04.693Z,53.33
2024-02-26T13:09:37.017Z,53.93
2024-02-26T13:12:08.858Z,53.64
2024-02-26T13:14:36.576Z,53.57
2024-02-26T13:17:04.754Z,53.62
2024-02-26T13:19:32.199Z,54.08
2024-02-26T13:22:08.736Z,53.66
2024-02-26T13:24:37.939Z,53.88
2024-02-26T13:27:07.781Z,53.89
2024-02-26T13:29:35.172Z,54.26
2024-02-26T13:32:02.242Z,54.03
2024-02-26T13:34:32.193Z,54.32
2024-02-26T13:36:59.660Z,53.91
2024-02-26T13:39:28.224Z,54.31
2024-02-26T13:41:56.213Z,53.95
2024-02-26T13:44:23.805Z,54.35
2024-02-26T13:46:50.960Z,53.92
2024-02-26T13:49:18.258Z,54.10
2024-02-26T13:51:45.538Z,54.05
2024-02-26T13:54:13.134Z,53.92
2024-02-26T13:56:40.138Z,53.90
2024-02-26T13:59:07.104Z,54.09
2024-02-26T14:01:34.868Z,53.95
2024-02-26T14:04:04.095Z,54.00
2024-02-26T14:06:32.392Z,54.11
2024-02-26T14:09:00.391Z,53.85
2024-02-26T14:11:27.798Z,53.68
2024-02-26T14:13:54.988Z,53.79
2024-02-26T14:16:22.192Z,53.73
2024-02-26T14:18:49.466Z,53.91
2024-02-26T14:21:17.194Z,53.36
2024-02-26T14:23:45.835Z,53.76
2024-02-26T14:26:13.481Z,53.98
2024-02-26T14:28:40.501Z,53.64
2024-02-26T14:31:08.666Z,53.94
2024-02-26T14:33:38.566Z,54.22
2024-02-26T14:36:07.441Z,54.52
2024-02-26T14:38:34.459Z,54.24
2024-02-26T14:41:01.534Z,54.41
2024-02-26T14:43:28.675Z,54.22
2024-02-26T14:45:55.676Z,54.24
2024-02-26T14:48:22.752Z,54.86
2024-02-26T14:50:50.788Z,54.96
2024-02-26T14:53:18.790Z,54.49
2024-02-26T14:55:46.047Z,54.19
2024-02-26T14:58:13.225Z,54.42
2024-02-26T15:00:40.764Z,54.61
2024-02-26T15:03:08.053Z,54.51
2024-02-26T15:05:35.970Z,54.33
2024-02-26T15:08:03.872Z,54.33
2024-02-26T15:10:30.855Z,54.20
2024-02-26T15:12:58.053Z,54.38
2024-02-26T15:15:25.766Z,54.31
2024-02-26T15:17:52.971Z,53.98
2024-02-26T15:20:20.535Z,53.90
2024-02-26T15:22:48.058Z,54.49
2024-02-26T15:25:16.356Z,54.20
2024-02-26T15:27:43.850Z,54.51
2024-02-26T15:30:11.562Z,54.84
2024-02-26T15:32:39.698Z,54.47
2024-02-26T15:35:07.965Z,54.88
2024-02-26T15:37:35.123Z,54.81
2024-02-26T15:40:02.261Z,54.78
2024-02-26T15:42:29.515Z,54.76
2024-02-26T15:44:56.638Z,54.76
2024-02-26T15:47:23.715Z,54.73
2024-02-26T15:49:50.913Z,54.96
2024-02-26T15:52:18.241Z,54.98
2024-02-26T15:54:45.306Z,54.84
2024-02-26T15:57:17.889Z,54.93
2024-02-26T15:59:44.926Z,54.83
2024-02-26T16:02:12.107Z,54.89
2024-02-26T16:04:39.500Z,53.23
2024-02-26T16:07:11.792Z,51.82
2024-02-26T16:09:39.233Z,53.24
2024-02-26T16:12:16.645Z,54.22
2024-02-26T16:14:51.841Z,54.50
2024-02-26T16:17:33.254Z,55.20
2024-02-26T16:20:01.165Z,55.58
2024-02-26T16:22:29.186Z,55.31
2024-02-26T16:24:56.241Z,55.65
2024-02-26T16:27:23.608Z,55.47
2024-02-26T16:29:50.704Z,55.61
2024-02-26T16:32:18.104Z,55.51
2024-02-26T16:34:45.418Z,55.51
2024-02-26T16:37:13.538Z,55.85
2024-02-26T16:39:41.373Z,54.93
2024-02-26T16:42:10.392Z,53.73
2024-02-26T16:44:37.998Z,55.01
2024-02-26T16:47:07.109Z,54.77
2024-02-26T16:49:35.435Z,54.94
2024-02-26T16:52:03.788Z,54.92
2024-02-26T16:54:31.078Z,55.00
2024-02-26T16:56:58.406Z,55.55
2024-02-26T16:59:29.677Z,56.02
2024-02-26T17:01:57.595Z,56.05
2024-02-26T17:04:24.820Z,55.85
2024-02-26T17:06:54.589Z,55.58
2024-02-26T17:09:22.266Z,55.72
2024-02-26T17:11:49.623Z,56.09
2024-02-26T17:14:17.346Z,55.88
2024-02-26T17:16:44.606Z,55.82
2024-02-26T17:19:11.940Z,55.85
2024-02-26T17:21:39.157Z,55.65
2024-02-26T17:24:06.674Z,55.61
2024-02-26T17:26:34.013Z,55.72
2024-02-26T17:29:02.934Z,56.02
2024-02-26T17:31:36.002Z,55.86
2024-02-26T17:34:03.445Z,56.00
2024-02-26T17:36:30.709Z,56.04
2024-02-26T17:38:57.785Z,55.98
2024-02-26T17:41:24.924Z,56.26
2024-02-26T17:43:51.900Z,55.99
2024-02-26T17:46:18.898Z,55.99
2024-02-26T17:48:47.070Z,55.98
2024-02-26T17:51:14.324Z,55.51
2024-02-26T17:53:41.296Z,55.72
2024-02-26T17:56:08.769Z,55.70
2024-02-26T17:58:38.336Z,55.87
2024-02-26T18:01:05.464Z,55.89
2024-02-26T18:03:32.658Z,55.61
2024-02-26T18:06:01.217Z,55.77
2024-02-26T18:08:29.533Z,55.71
2024-02-26T18:10:58.788Z,55.64
2024-02-26T18:13:25.895Z,55.52
2024-02-26T18:15:53.118Z,55.37
2024-02-26T18:18:20.263Z,55.58
2024-02-26T18:20:47.384Z,55.63
2024-02-26T18:23:15.676Z,55.62
2024-02-26T18:25:42.750Z,55.48
2024-02-26T18:28:09.819Z,55.53
2024-02-26T18:30:36.849Z,55.37
2024-02-26T18:33:05.018Z,55.45
2024-02-26T18:35:32.248Z,54.90
2024-02-26T18:37:59.298Z,55.00
2024-02-26T18:40:26.468Z,55.25
2024-02-26T18:42:53.442Z,55.67
2024-02-26T18:45:20.553Z,55.28
2024-02-26T18:47:47.896Z,55.25
2024-02-26T18:50:17.884Z,55.07
2024-02-26T18:52:47.423Z,54.75
2024-02-26T18:55:14.685Z,54.66
2024-02-26T18:57:42.861Z,54.57
2024-02-26T19:00:10.946Z,54.87
2024-02-26T19:02:37.992Z,54.75
2024-02-26T19:05:05.720Z,54.76
2024-02-26T19:07:32.735Z,54.59
2024-02-26T19:09:59.763Z,54.72
2024-02-26T19:12:27.172Z,54.80
2024-02-26T19:14:55.271Z,54.44
2024-02-26T19:17:23.556Z,54.61
2024-02-26T19:19:50.667Z,54.62
2024-02-26T19:22:20.155Z,54.69
2024-02-26T19:24:47.251Z,54.35
2024-02-26T19:27:15.244Z,54.47
2024-02-26T19:29:42.322Z,54.91
2024-02-26T19:32:12.454Z,54.65
2024-02-26T19:34:40.480Z,53.93
2024-02-26T19:37:07.893Z,54.78
2024-02-26T19:39:35.089Z,55.48
2024-02-26T19:42:02.459Z,55.41
2024-02-26T19:44:29.579Z,55.48
2024-02-26T19:46:56.665Z,55.69
2024-02-26T19:49:23.911Z,55.49
2024-02-26T19:51:51.799Z,55.79
2024-02-26T19:54:18.838Z,55.76
2024-02-26T19:56:47.952Z,55.65
2024-02-26T19:59:18.356Z,55.87
2024-02-26T20:01:45.444Z,55.83
2024-02-26T20:04:13.844Z,55.88
2024-02-26T20:06:42.028Z,55.62
2024-02-26T20:09:09.509Z,55.98
2024-02-26T20:11:40.822Z,55.72
2024-02-26T20:14:12.614Z,55.64
2024-02-26T20:16:40.045Z,55.63
2024-02-26T20:19:09.993Z,55.96
2024-02-26T20:21:41.575Z,56.73
2024-02-26T20:24:09.267Z,56.24
2024-02-26T20:26:37.222Z,56.12
2024-02-26T20:29:04.821Z,56.15
2024-02-26T20:31:33.222Z,56.30
2024-02-26T20:34:02.061Z,56.15
2024-02-26T20:36:30.001Z,56.89
2024-02-26T20:38:57.559Z,56.80
2024-02-26T20:41:24.744Z,56.75
2024-02-26T20:43:51.857Z,56.83
2024-02-26T20:46:19.039Z,56.38
2024-02-26T20:48:46.094Z,56.65
2024-02-26T20:51:13.402Z,56.85
2024-02-26T20:53:42.443Z,56.92
2024-02-26T20:56:09.810Z,56.85
2024-02-26T20:58:37.474Z,57.04
2024-02-26T21:01:04.812Z,56.95
2024-02-26T21:03:32.073Z,56.72
2024-02-26T21:05:59.214Z,56.75
2024-02-26T21:08:33.126Z,56.88
2024-02-26T21:11:06.977Z,56.79
2024-02-26T21:13:37.811Z,56.71
2024-02-26T21:16:06.130Z,57.11
2024-02-26T21:18:35.525Z,56.96
2024-02-26T21:21:05.985Z,57.05
2024-02-26T21:23:33.280Z,57.05
2024-02-26T21:26:00.301Z,56.92
2024-02-26T21:28:27.348Z,57.06
2024-02-26T21:30:57.818Z,57.06
2024-02-26T21:33:26.125Z,57.26
2024-02-26T21:35:55.233Z,57.24
2024-02-26T21:38:29.162Z,57.35
2024-02-26T21:41:02.496Z,57.15
2024-02-26T21:43:29.548Z,57.23
2024-02-26T21:45:56.608Z,57.14
2024-02-26T21:48:23.778Z,57.00
2024-02-26T21:50:50.977Z,56.92
2024-02-26T21:53:18.020Z,57.19
2024-02-26T21:55:45.978Z,57.33
2024-02-26T21:58:13.123Z,57.21
2024-02-26T22:00:40.129Z,57.38
2024-02-26T22:03:07.275Z,57.25
2024-02-26T22:05:34.505Z,57.24
2024-02-26T22:08:01.489Z,57.12
2024-02-26T22:10:28.742Z,57.07
2024-02-26T22:12:55.789Z,57.28
2024-02-26T22:15:22.884Z,57.25
2024-02-26T22:17:49.916Z,57.00
2024-02-26T22:20:17.122Z,57.14
2024-02-26T22:22:44.088Z,56.92
2024-02-26T22:25:11.131Z,57.04
2024-02-26T22:27:38.645Z,57.08
2024-02-26T22:30:06.260Z,57.13
2024-02-26T22:32:33.343Z,57.35
2024-02-26T22:35:00.520Z,57.79
2024-02-26T22:37:27.652Z,57.32
2024-02-26T22:39:54.827Z,57.37
2024-02-26T22:42:22.294Z,57.42
2024-02-26T22:44:49.408Z,57.60
2024-02-26T22:47:16.493Z,57.34
2024-02-26T22:49:43.622Z,57.02
2024-02-26T22:52:10.686Z,56.82
2024-02-26T22:54:37.874Z,57.34
2024-02-26T22:57:06.417Z,57.20
2024-02-26T22:59:33.375Z,56.96
2024-02-26T23:02:00.431Z,57.15
2024-02-26T23:04:27.924Z,57.04
2024-02-26T23:06:55.232Z,57.11
2024-02-26T23:09:23.154Z,57.05
2024-02-26T23:11:50.536Z,57.25
2024-02-26T23:14:17.628Z,57.02
2024-02-26T23:16:46.408Z,57.15
2024-02-26T23:19:13.737Z,57.02
2024-02-26T23:21:43.050Z,57.16
